sensor_id;sensor_type;location;lat;lon;timestamp;pressure;altitude;pressure_sealevel;temperature;humidity
13013;BME280;22580;57.670;12.006;2023-02-01T00:02:03;99210.47;;;10.28;100.00
13013;BME280;22580;57.670;12.006;2023-02-01T00:04:30;99203.50;;;10.44;100.00
13013;BME280;22580;57.670;12.006;2023-02-01T00:06:57;99205.25;;;10.36;100.00
13013;BME280;22580;57.670;12.006;2023-02-01T00:09:24;99187.09;;;10.39;100.00
13013;BME280;22580;57.670;12.006;2023-02-01T00:11:51;99209.50;;;10.56;100.00
13013;BME280;22580;57.670;12.006;2023-02-01T00:14:18;99207.94;;;10.26;100.00
13013;BME280;22580;57.670;12.006;2023-02-01T00:16:45;99206.81;;;10.19;100.00
13013;BME280;22580;57.670;12.006;2023-02-01T00:19:14;99212.41;;;10.35;100.00
13013;BME280;22580;57.670;12.006;2023-02-01T00:21:41;99219.66;;;10.52;100.00
13013;BME280;22580;57.670;12.006;2023-02-01T00:24:10;99175.75;;;10.18;100.00
13013;BME280;22580;57.670;12.006;2023-02-01T00:26:39;99181.25;;;10.07;100.00
13013;BME280;22580;57.670;12.006;2023-02-01T00:29:09;99217.09;;;10.04;100.00
13013;BME280;22580;57.670;12.006;2023-02-01T00:31:37;99212.38;;;10.45;100.00
13013;BME280;22580;57.670;12.006;2023-02-01T00:34:04;99211.22;;;9.81;100.00
13013;BME280;22580;57.670;12.006;2023-02-01T00:36:33;99195.72;;;10.24;100.00
13013;BME280;22580;57.670;12.006;2023-02-01T00:39:00;99196.84;;;10.21;100.00
13013;BME280;22580;57.670;12.006;2023-02-01T00:41:27;99167.38;;;10.40;100.00
13013;BME280;22580;57.670;12.006;2023-02-01T00:43:54;99183.69;;;10.47;100.00
13013;BME280;22580;57.670;12.006;2023-02-01T00:46:21;99213.81;;;10.39;100.00
13013;BME280;22580;57.670;12.006;2023-02-01T00:48:48;99197.53;;;10.60;100.00
13013;BME280;22580;57.670;12.006;2023-02-01T00:51:19;99187.75;;;10.51;100.00
13013;BME280;22580;57.670;12.006;2023-02-01T00:53:48;99192.09;;;9.96;100.00
13013;BME280;22580;57.670;12.006;2023-02-01T00:56:15;99168.47;;;10.01;100.00
13013;BME280;22580;57.670;12.006;2023-02-01T00:58:43;99207.56;;;10.48;100.00
13013;BME280;22580;57.670;12.006;2023-02-01T01:01:11;99207.88;;;10.45;100.00
13013;BME280;22580;57.670;12.006;2023-02-01T01:03:40;99201.34;;;10.58;100.00
13013;BME280;22580;57.670;12.006;2023-02-01T01:06:10;99205.13;;;10.65;100.00
13013;BME280;22580;57.670;12.006;2023-02-01T01:08:38;99202.03;;;10.32;100.00
13013;BME280;22580;57.670;12.006;2023-02-01T01:11:07;99212.72;;;10.32;100.00
13013;BME280;22580;57.670;12.006;2023-02-01T01:13:35;99204.13;;;10.19;100.00
13013;BME280;22580;57.670;12.006;2023-02-01T01:16:03;99217.38;;;10.58;100.00
13013;BME280;22580;57.670;12.006;2023-02-01T01:18:31;99214.31;;;10.52;100.00
13013;BME280;22580;57.670;12.006;2023-02-01T01:20:59;99232.41;;;10.22;100.00
13013;BME280;22580;57.670;12.006;2023-02-01T01:23:27;99215.25;;;10.34;100.00
13013;BME280;22580;57.670;12.006;2023-02-01T01:25:54;99174.94;;;9.98;100.00
13013;BME280;22580;57.670;12.006;2023-02-01T01:28:23;99210.81;;;10.42;100.00
13013;BME280;22580;57.670;12.006;2023-02-01T01:30:50;99211.13;;;10.76;100.00
13013;BME280;22580;57.670;12.006;2023-02-01T01:33:17;99214.25;;;10.72;100.00
13013;BME280;22580;57.670;12.006;2023-02-01T01:35:44;99179.47;;;10.44;100.00
13013;BME280;22580;57.670;12.006;2023-02-01T01:38:11;99197.69;;;10.59;100.00
13013;BME280;22580;57.670;12.006;2023-02-01T01:40:44;99209.31;;;10.40;100.00
13013;BME280;22580;57.670;12.006;2023-02-01T01:43:14;99208.75;;;10.73;100.00
13013;BME280;22580;57.670;12.006;2023-02-01T01:45:42;99217.13;;;10.88;100.00
13013;BME280;22580;57.670;12.006;2023-02-01T01:48:13;99182.66;;;10.85;100.00
13013;BME280;22580;57.670;12.006;2023-02-01T01:50:45;99199.69;;;10.84;100.00
13013;BME280;22580;57.670;12.006;2023-02-01T01:53:18;99201.22;;;11.14;100.00
13013;BME280;22580;57.670;12.006;2023-02-01T01:55:48;99201.66;;;10.55;100.00
13013;BME280;22580;57.670;12.006;2023-02-01T01:58:18;99236.78;;;10.60;100.00
13013;BME280;22580;57.670;12.006;2023-02-01T02:00:49;99182.28;;;10.80;100.00
13013;BME280;22580;57.670;12.006;2023-02-01T02:03:18;99218.78;;;10.62;100.00
13013;BME280;22580;57.670;12.006;2023-02-01T02:05:48;99085.56;;;10.22;100.00
13013;BME280;22580;57.670;12.006;2023-02-01T02:08:17;99219.41;;;10.83;100.00
13013;BME280;22580;57.670;12.006;2023-02-01T02:10:45;99202.72;;;10.34;100.00
13013;BME280;22580;57.670;12.006;2023-02-01T02:13:31;99211.41;;;10.73;100.00
13013;BME280;22580;57.670;12.006;2023-02-01T02:16:20;99215.88;;;10.82;100.00
13013;BME280;22580;57.670;12.006;2023-02-01T02:18:59;99232.16;;;10.52;100.00
13013;BME280;22580;57.670;12.006;2023-02-01T02:21:47;99190.84;;;10.46;100.00
13013;BME280;22580;57.670;12.006;2023-02-01T02:24:37;99231.69;;;11.03;100.00
13013;BME280;22580;57.670;12.006;2023-02-01T02:27:15;99145.44;;;10.46;100.00
13013;BME280;22580;57.670;12.006;2023-02-01T02:36:00;99229.78;;;11.31;100.00
13013;BME280;22580;57.670;12.006;2023-02-01T02:38:33;99215.41;;;10.60;100.00
13013;BME280;22580;57.670;12.006;2023-02-01T02:41:09;99245.44;;;11.08;100.00
13013;BME280;22580;57.670;12.006;2023-02-01T02:44:05;99141.78;;;10.47;100.00
13013;BME280;22580;57.670;12.006;2023-02-01T02:46:55;99182.72;;;10.75;100.00
13013;BME280;22580;57.670;12.006;2023-02-01T02:49:49;99213.59;;;10.88;100.00
13013;BME280;22580;57.670;12.006;2023-02-01T02:52:45;99224.84;;;10.91;100.00
13013;BME280;22580;57.670;12.006;2023-02-01T02:55:28;99207.50;;;10.68;100.00
13013;BME280;22580;57.670;12.006;2023-02-01T02:57:58;99164.94;;;10.57;100.00
13013;BME280;22580;57.670;12.006;2023-02-01T03:00:43;99193.59;;;11.19;100.00
13013;BME280;22580;57.670;12.006;2023-02-01T03:03:28;99205.38;;;10.99;100.00
13013;BME280;22580;57.670;12.006;2023-02-01T03:06:15;99212.69;;;11.24;100.00
13013;BME280;22580;57.670;12.006;2023-02-01T03:08:45;99206.88;;;10.83;100.00
13013;BME280;22580;57.670;12.006;2023-02-01T03:11:14;99206.72;;;10.85;100.00
13013;BME280;22580;57.670;12.006;2023-02-01T03:13:44;99211.22;;;10.84;100.00
13013;BME280;22580;57.670;12.006;2023-02-01T03:16:13;99215.53;;;10.95;100.00
13013;BME280;22580;57.670;12.006;2023-02-01T03:18:47;99217.84;;;10.80;100.00
13013;BME280;22580;57.670;12.006;2023-02-01T03:21:22;99207.13;;;10.90;100.00
13013;BME280;22580;57.670;12.006;2023-02-01T03:23:54;99186.34;;;10.84;100.00
13013;BME280;22580;57.670;12.006;2023-02-01T03:26:26;99171.00;;;10.49;100.00
13013;BME280;22580;57.670;12.006;2023-02-01T03:28:57;99205.63;;;11.05;100.00
13013;BME280;22580;57.670;12.006;2023-02-01T03:31:27;99211.94;;;10.49;100.00
13013;BME280;22580;57.670;12.006;2023-02-01T03:33:55;99165.34;;;10.34;100.00
13013;BME280;22580;57.670;12.006;2023-02-01T03:36:26;99191.38;;;10.60;100.00
13013;BME280;22580;57.670;12.006;2023-02-01T03:39:02;99181.97;;;11.10;100.00
13013;BME280;22580;57.670;12.006;2023-02-01T03:41:35;99194.44;;;10.92;100.00
13013;BME280;22580;57.670;12.006;2023-02-01T03:44:09;99178.41;;;10.92;100.00
13013;BME280;22580;57.670;12.006;2023-02-01T03:46:40;99197.00;;;11.29;100.00
13013;BME280;22580;57.670;12.006;2023-02-01T03:49:13;99173.81;;;10.84;100.00
13013;BME280;22580;57.670;12.006;2023-02-01T03:51:43;99219.59;;;10.99;100.00
13013;BME280;22580;57.670;12.006;2023-02-01T03:54:13;99192.31;;;10.68;100.00
13013;BME280;22580;57.670;12.006;2023-02-01T03:56:43;99222.94;;;10.74;99.74
13013;BME280;22580;57.670;12.006;2023-02-01T03:59:12;99233.16;;;10.51;100.00
13013;BME280;22580;57.670;12.006;2023-02-01T04:01:39;99206.00;;;10.56;100.00
13013;BME280;22580;57.670;12.006;2023-02-01T04:04:08;99220.00;;;11.04;100.00
13013;BME280;22580;57.670;12.006;2023-02-01T04:06:34;99226.22;;;11.40;98.40
13013;BME280;22580;57.670;12.006;2023-02-01T04:09:01;99187.31;;;11.28;98.15
13013;BME280;22580;57.670;12.006;2023-02-01T04:11:30;99216.66;;;11.38;99.26
13013;BME280;22580;57.670;12.006;2023-02-01T04:13:57;99221.34;;;11.71;98.07
13013;BME280;22580;57.670;12.006;2023-02-01T04:16:29;99211.56;;;11.44;98.80
13013;BME280;22580;57.670;12.006;2023-02-01T04:18:56;99193.56;;;11.01;100.00
13013;BME280;22580;57.670;12.006;2023-02-01T04:21:23;99196.81;;;10.95;100.00
13013;BME280;22580;57.670;12.006;2023-02-01T04:23:50;99187.53;;;11.35;99.03
13013;BME280;22580;57.670;12.006;2023-02-01T04:26:17;99201.69;;;11.45;98.46
13013;BME280;22580;57.670;12.006;2023-02-01T04:28:46;99179.38;;;11.19;98.92
13013;BME280;22580;57.670;12.006;2023-02-01T04:31:14;99183.88;;;11.36;98.33
13013;BME280;22580;57.670;12.006;2023-02-01T04:33:41;99191.44;;;10.77;100.00
13013;BME280;22580;57.670;12.006;2023-02-01T04:36:08;99175.13;;;10.98;99.88
13013;BME280;22580;57.670;12.006;2023-02-01T04:38:35;99197.59;;;11.05;99.36
13013;BME280;22580;57.670;12.006;2023-02-01T04:41:02;99191.38;;;11.14;99.47
13013;BME280;22580;57.670;12.006;2023-02-01T04:43:29;99157.63;;;10.86;99.70
13013;BME280;22580;57.670;12.006;2023-02-01T04:45:57;99184.09;;;10.79;100.00
13013;BME280;22580;57.670;12.006;2023-02-01T04:48:24;99175.44;;;10.95;100.00
13013;BME280;22580;57.670;12.006;2023-02-01T04:50:51;99182.50;;;11.32;100.00
13013;BME280;22580;57.670;12.006;2023-02-01T04:53:18;99173.25;;;10.81;100.00
13013;BME280;22580;57.670;12.006;2023-02-01T04:55:44;99151.72;;;10.55;100.00
13013;BME280;22580;57.670;12.006;2023-02-01T04:58:11;99166.81;;;11.01;100.00
13013;BME280;22580;57.670;12.006;2023-02-01T05:00:39;99137.72;;;10.98;100.00
13013;BME280;22580;57.670;12.006;2023-02-01T05:03:07;99153.38;;;11.11;100.00
13013;BME280;22580;57.670;12.006;2023-02-01T05:05:34;99179.59;;;10.80;100.00
13013;BME280;22580;57.670;12.006;2023-02-01T05:08:01;99176.25;;;11.23;100.00
13013;BME280;22580;57.670;12.006;2023-02-01T05:10:29;99170.19;;;11.03;100.00
13013;BME280;22580;57.670;12.006;2023-02-01T05:12:56;99173.25;;;11.08;100.00
13013;BME280;22580;57.670;12.006;2023-02-01T05:15:40;99169.91;;;11.24;100.00
13013;BME280;22580;57.670;12.006;2023-02-01T05:18:08;99175.16;;;11.34;100.00
13013;BME280;22580;57.670;12.006;2023-02-01T05:20:36;99180.00;;;10.85;100.00
13013;BME280;22580;57.670;12.006;2023-02-01T05:23:03;99192.06;;;10.62;100.00
13013;BME280;22580;57.670;12.006;2023-02-01T05:25:30;99188.81;;;10.95;100.00
13013;BME280;22580;57.670;12.006;2023-02-01T05:27:56;99200.50;;;10.94;100.00
13013;BME280;22580;57.670;12.006;2023-02-01T05:30:23;99187.06;;;10.76;100.00
13013;BME280;22580;57.670;12.006;2023-02-01T05:32:51;99205.53;;;10.33;100.00
13013;BME280;22580;57.670;12.006;2023-02-01T05:35:19;99202.16;;;10.95;100.00
13013;BME280;22580;57.670;12.006;2023-02-01T05:37:47;99169.53;;;10.92;100.00
13013;BME280;22580;57.670;12.006;2023-02-01T05:40:13;99196.03;;;10.85;100.00
13013;BME280;22580;57.670;12.006;2023-02-01T05:42:40;99191.13;;;10.80;100.00
13013;BME280;22580;57.670;12.006;2023-02-01T05:45:08;99213.94;;;10.75;100.00
13013;BME280;22580;57.670;12.006;2023-02-01T05:47:35;99198.69;;;11.12;100.00
13013;BME280;22580;57.670;12.006;2023-02-01T05:50:03;99198.59;;;11.04;100.00
13013;BME280;22580;57.670;12.006;2023-02-01T05:52:31;99170.50;;;10.73;100.00
13013;BME280;22580;57.670;12.006;2023-02-01T05:54:58;99199.50;;;10.95;100.00
13013;BME280;22580;57.670;12.006;2023-02-01T05:57:25;99196.19;;;10.83;100.00
13013;BME280;22580;57.670;12.006;2023-02-01T05:59:52;99205.91;;;10.75;100.00
13013;BME280;22580;57.670;12.006;2023-02-01T06:02:19;99212.78;;;10.50;100.00
13013;BME280;22580;57.670;12.006;2023-02-01T06:04:47;99186.59;;;10.07;100.00
13013;BME280;22580;57.670;12.006;2023-02-01T06:07:13;99188.56;;;10.89;99.94
13013;BME280;22580;57.670;12.006;2023-02-01T06:09:42;99191.75;;;11.20;97.72
13013;BME280;22580;57.670;12.006;2023-02-01T06:12:09;99161.94;;;11.14;98.11
13013;BME280;22580;57.670;12.006;2023-02-01T06:14:35;99179.81;;;11.49;96.98
13013;BME280;22580;57.670;12.006;2023-02-01T06:17:03;99135.41;;;10.86;98.70
13013;BME280;22580;57.670;12.006;2023-02-01T06:19:31;99169.19;;;11.04;99.52
13013;BME280;22580;57.670;12.006;2023-02-01T06:21:58;99144.22;;;11.31;98.31
13013;BME280;22580;57.670;12.006;2023-02-01T06:24:25;99168.81;;;11.35;99.47
13013;BME280;22580;57.670;12.006;2023-02-01T06:26:53;99128.94;;;11.06;99.88
13013;BME280;22580;57.670;12.006;2023-02-01T06:29:20;99178.78;;;11.25;100.00
13013;BME280;22580;57.670;12.006;2023-02-01T06:31:48;99114.09;;;10.94;100.00
13013;BME280;22580;57.670;12.006;2023-02-01T06:34:14;99112.56;;;10.91;100.00
13013;BME280;22580;57.670;12.006;2023-02-01T06:36:41;99073.97;;;10.58;100.00
13013;BME280;22580;57.670;12.006;2023-02-01T06:39:09;99190.59;;;11.04;100.00
13013;BME280;22580;57.670;12.006;2023-02-01T06:41:38;99089.56;;;10.35;100.00
13013;BME280;22580;57.670;12.006;2023-02-01T06:44:06;99156.69;;;11.23;100.00
13013;BME280;22580;57.670;12.006;2023-02-01T06:46:33;99191.38;;;11.14;100.00
13013;BME280;22580;57.670;12.006;2023-02-01T06:49:00;99189.44;;;11.07;100.00
13013;BME280;22580;57.670;12.006;2023-02-01T06:51:27;99185.25;;;10.77;100.00
13013;BME280;22580;57.670;12.006;2023-02-01T06:53:55;99180.19;;;10.74;100.00
13013;BME280;22580;57.670;12.006;2023-02-01T06:56:22;99168.72;;;10.91;100.00
13013;BME280;22580;57.670;12.006;2023-02-01T06:58:49;99186.22;;;10.76;100.00
13013;BME280;22580;57.670;12.006;2023-02-01T07:01:18;99193.84;;;10.71;100.00
13013;BME280;22580;57.670;12.006;2023-02-01T07:03:47;99189.59;;;10.78;100.00
13013;BME280;22580;57.670;12.006;2023-02-01T07:06:16;99208.78;;;10.27;100.00
13013;BME280;22580;57.670;12.006;2023-02-01T07:08:43;99196.31;;;10.55;100.00
13013;BME280;22580;57.670;12.006;2023-02-01T07:11:11;99199.09;;;10.63;100.00
13013;BME280;22580;57.670;12.006;2023-02-01T07:13:39;99174.84;;;10.74;100.00
13013;BME280;22580;57.670;12.006;2023-02-01T07:16:08;99179.28;;;10.56;100.00
13013;BME280;22580;57.670;12.006;2023-02-01T07:18:37;99158.59;;;10.30;100.00
13013;BME280;22580;57.670;12.006;2023-02-01T07:21:05;99197.81;;;10.67;100.00
13013;BME280;22580;57.670;12.006;2023-02-01T07:23:32;99186.03;;;10.87;100.00
13013;BME280;22580;57.670;12.006;2023-02-01T07:26:01;99185.72;;;11.18;100.00
13013;BME280;22580;57.670;12.006;2023-02-01T07:28:29;99187.41;;;10.91;100.00
13013;BME280;22580;57.670;12.006;2023-02-01T07:31:02;99167.16;;;11.16;100.00
13013;BME280;22580;57.670;12.006;2023-02-01T07:33:28;99168.66;;;10.73;100.00
13013;BME280;22580;57.670;12.006;2023-02-01T07:35:57;99173.84;;;10.47;100.00
13013;BME280;22580;57.670;12.006;2023-02-01T07:38:24;99183.91;;;10.16;100.00
13013;BME280;22580;57.670;12.006;2023-02-01T07:40:51;99178.06;;;10.77;100.00
13013;BME280;22580;57.670;12.006;2023-02-01T07:43:17;99179.59;;;10.80;100.00
13013;BME280;22580;57.670;12.006;2023-02-01T07:45:50;99087.03;;;10.34;99.68
13013;BME280;22580;57.670;12.006;2023-02-01T07:48:17;99184.50;;;10.47;100.00
13013;BME280;22580;57.670;12.006;2023-02-01T07:50:45;99158.22;;;10.80;99.47
13013;BME280;22580;57.670;12.006;2023-02-01T07:53:13;99166.28;;;10.70;99.38
13013;BME280;22580;57.670;12.006;2023-02-01T07:55:40;99175.13;;;10.98;98.32
13013;BME280;22580;57.670;12.006;2023-02-01T07:58:07;99207.63;;;10.39;99.65
13013;BME280;22580;57.670;12.006;2023-02-01T08:00:34;99126.81;;;9.71;100.00
13013;BME280;22580;57.670;12.006;2023-02-01T08:03:17;99184.69;;;10.73;98.88
13013;BME280;22580;57.670;12.006;2023-02-01T08:05:44;99165.16;;;10.73;98.11
13013;BME280;22580;57.670;12.006;2023-02-01T08:08:13;99172.63;;;10.97;97.28
13013;BME280;22580;57.670;12.006;2023-02-01T08:10:40;99167.63;;;10.10;98.80
13013;BME280;22580;57.670;12.006;2023-02-01T08:13:07;99173.69;;;10.49;98.21
13013;BME280;22580;57.670;12.006;2023-02-01T08:15:35;99171.88;;;11.04;95.17
13013;BME280;22580;57.670;12.006;2023-02-01T08:18:02;99146.50;;;10.63;95.34
13013;BME280;22580;57.670;12.006;2023-02-01T08:20:28;99181.53;;;10.88;95.14
13013;BME280;22580;57.670;12.006;2023-02-01T08:22:55;99185.25;;;10.77;95.39
13013;BME280;22580;57.670;12.006;2023-02-01T08:25:24;99194.97;;;11.41;93.09
13013;BME280;22580;57.670;12.006;2023-02-01T08:27:51;99198.84;;;11.46;92.70
13013;BME280;22580;57.670;12.006;2023-02-01T08:30:19;99186.78;;;11.25;93.51
13013;BME280;22580;57.670;12.006;2023-02-01T08:32:47;99188.25;;;11.55;92.58
13013;BME280;22580;57.670;12.006;2023-02-01T08:35:14;99181.28;;;11.44;92.80
13013;BME280;22580;57.670;12.006;2023-02-01T08:37:41;99191.16;;;11.26;93.39
13013;BME280;22580;57.670;12.006;2023-02-01T08:40:09;99192.28;;;10.78;96.80
13013;BME280;22580;57.670;12.006;2023-02-01T08:42:37;99203.06;;;11.13;96.29
13013;BME280;22580;57.670;12.006;2023-02-01T08:45:21;99189.47;;;11.25;96.61
13013;BME280;22580;57.670;12.006;2023-02-01T08:47:49;99188.16;;;11.11;97.00
13013;BME280;22580;57.670;12.006;2023-02-01T08:50:17;99176.38;;;11.04;98.34
13013;BME280;22580;57.670;12.006;2023-02-01T08:52:44;99184.44;;;10.94;98.67
13013;BME280;22580;57.670;12.006;2023-02-01T08:55:12;99188.84;;;11.31;97.84
13013;BME280;22580;57.670;12.006;2023-02-01T08:57:41;99178.97;;;11.31;97.59
13013;BME280;22580;57.670;12.006;2023-02-01T09:00:10;99165.22;;;11.08;98.43
13013;BME280;22580;57.670;12.006;2023-02-01T09:02:38;99174.72;;;11.56;97.90
13013;BME280;22580;57.670;12.006;2023-02-01T09:05:05;99196.09;;;11.74;97.41
13013;BME280;22580;57.670;12.006;2023-02-01T09:07:33;99185.03;;;11.15;100.00
13013;BME280;22580;57.670;12.006;2023-02-01T09:10:01;99203.59;;;11.35;100.00
13013;BME280;22580;57.670;12.006;2023-02-01T09:12:28;99197.78;;;11.39;100.00
13013;BME280;22580;57.670;12.006;2023-02-01T09:14:57;99178.53;;;11.71;99.39
13013;BME280;22580;57.670;12.006;2023-02-01T09:17:25;99183.78;;;11.10;100.00
13013;BME280;22580;57.670;12.006;2023-02-01T09:19:52;99181.75;;;11.57;100.00
13013;BME280;22580;57.670;12.006;2023-02-01T09:22:19;99187.69;;;11.33;100.00
13013;BME280;22580;57.670;12.006;2023-02-01T09:24:46;99183.47;;;11.31;100.00
13013;BME280;22580;57.670;12.006;2023-02-01T09:27:13;99158.81;;;11.55;100.00
13013;BME280;22580;57.670;12.006;2023-02-01T09:29:40;99199.16;;;11.61;100.00
13013;BME280;22580;57.670;12.006;2023-02-01T09:32:08;99192.06;;;11.34;100.00
13013;BME280;22580;57.670;12.006;2023-02-01T09:34:35;99187.41;;;11.19;100.00
13013;BME280;22580;57.670;12.006;2023-02-01T09:37:02;99165.75;;;11.12;100.00
13013;BME280;22580;57.670;12.006;2023-02-01T09:39:29;99196.22;;;11.01;100.00
13013;BME280;22580;57.670;12.006;2023-02-01T09:42:15;99179.59;;;10.80;100.00
13013;BME280;22580;57.670;12.006;2023-02-01T09:44:52;99177.00;;;11.15;100.00
13013;BME280;22580;57.670;12.006;2023-02-01T09:47:26;99171.66;;;11.33;100.00
13013;BME280;22580;57.670;12.006;2023-02-01T09:49:56;99179.22;;;11.56;100.00
13013;BME280;22580;57.670;12.006;2023-02-01T09:52:31;99198.81;;;10.93;100.00
13013;BME280;22580;57.670;12.006;2023-02-01T09:55:04;99189.47;;;11.60;100.00
13013;BME280;22580;57.670;12.006;2023-02-01T09:57:41;99196.38;;;11.80;100.00
13013;BME280;22580;57.670;12.006;2023-02-01T10:00:16;99202.38;;;11.65;100.00
13013;BME280;22580;57.670;12.006;2023-02-01T10:02:46;99201.47;;;11.21;100.00
13013;BME280;22580;57.670;12.006;2023-02-01T10:05:15;99201.31;;;11.40;100.00
13013;BME280;22580;57.670;12.006;2023-02-01T10:07:49;99206.03;;;11.10;100.00
13013;BME280;22580;57.670;12.006;2023-02-01T10:10:25;99207.66;;;11.21;100.00
13013;BME280;22580;57.670;12.006;2023-02-01T10:13:14;99209.09;;;11.51;100.00
13013;BME280;22580;57.670;12.006;2023-02-01T10:15:50;99205.69;;;10.96;100.00
13013;BME280;22580;57.670;12.006;2023-02-01T10:18:34;99207.34;;;11.42;100.00
13013;BME280;22580;57.670;12.006;2023-02-01T10:21:10;99217.16;;;11.69;100.00
13013;BME280;22580;57.670;12.006;2023-02-01T10:23:54;99206.03;;;10.83;100.00
13013;BME280;22580;57.670;12.006;2023-02-01T10:26:33;99213.00;;;11.57;100.00
13013;BME280;22580;57.670;12.006;2023-02-01T10:29:02;99221.50;;;11.70;100.00
13013;BME280;22580;57.670;12.006;2023-02-01T10:31:33;99210.44;;;11.82;100.00
13013;BME280;22580;57.670;12.006;2023-02-01T10:34:10;99213.94;;;11.65;100.00
13013;BME280;22580;57.670;12.006;2023-02-01T10:36:42;99206.34;;;11.43;100.00
13013;BME280;22580;57.670;12.006;2023-02-01T10:39:14;99219.13;;;11.49;100.00
13013;BME280;22580;57.670;12.006;2023-02-01T10:41:41;99195.41;;;11.19;100.00
13013;BME280;22580;57.670;12.006;2023-02-01T10:44:11;99165.53;;;11.05;100.00
13013;BME280;22580;57.670;12.006;2023-02-01T10:46:39;99202.84;;;11.60;100.00
13013;BME280;22580;57.670;12.006;2023-02-01T10:49:13;99226.78;;;11.97;100.00
13013;BME280;22580;57.670;12.006;2023-02-01T10:51:45;99214.25;;;11.98;100.00
13013;BME280;22580;57.670;12.006;2023-02-01T10:54:16;99220.19;;;12.09;100.00
13013;BME280;22580;57.670;12.006;2023-02-01T10:56:46;99191.91;;;12.07;100.00
13013;BME280;22580;57.670;12.006;2023-02-01T10:59:18;99221.13;;;12.00;100.00
13013;BME280;22580;57.670;12.006;2023-02-01T11:01:46;99221.28;;;11.99;100.00
13013;BME280;22580;57.670;12.006;2023-02-01T11:04:16;99216.31;;;11.86;100.00
13013;BME280;22580;57.670;12.006;2023-02-01T11:06:46;99213.19;;;12.17;100.00
13013;BME280;22580;57.670;12.006;2023-02-01T11:09:19;99215.09;;;11.98;100.00
13013;BME280;22580;57.670;12.006;2023-02-01T11:11:58;99217.38;;;12.11;100.00
13013;BME280;22580;57.670;12.006;2023-02-01T11:14:43;99207.81;;;11.73;100.00
13013;BME280;22580;57.670;12.006;2023-02-01T11:17:21;99220.06;;;11.93;100.00
13013;BME280;22580;57.670;12.006;2023-02-01T11:20:05;99203.00;;;11.94;100.00
13013;BME280;22580;57.670;12.006;2023-02-01T11:22:33;99224.59;;;11.93;100.00
13013;BME280;22580;57.670;12.006;2023-02-01T11:25:01;99207.06;;;11.80;100.00
13013;BME280;22580;57.670;12.006;2023-02-01T11:27:34;99188.22;;;11.72;100.00
13013;BME280;22580;57.670;12.006;2023-02-01T11:30:02;99213.50;;;11.88;100.00
13013;BME280;22580;57.670;12.006;2023-02-01T11:32:30;99197.50;;;11.96;100.00
13013;BME280;22580;57.670;12.006;2023-02-01T11:35:02;99205.91;;;12.27;100.00
13013;BME280;22580;57.670;12.006;2023-02-01T11:37:31;99207.75;;;12.26;100.00
13013;BME280;22580;57.670;12.006;2023-02-01T11:40:03;99227.88;;;11.87;100.00
13013;BME280;22580;57.670;12.006;2023-02-01T11:42:30;99218.06;;;11.60;100.00
13013;BME280;22580;57.670;12.006;2023-02-01T11:45:19;99213.25;;;11.99;100.00
13013;BME280;22580;57.670;12.006;2023-02-01T11:47:46;99216.03;;;12.15;100.00
13013;BME280;22580;57.670;12.006;2023-02-01T11:50:30;99207.06;;;11.80;100.00
13013;BME280;22580;57.670;12.006;2023-02-01T11:53:15;99207.13;;;12.06;100.00
13013;BME280;22580;57.670;12.006;2023-02-01T11:55:59;99197.19;;;11.99;100.00
13013;BME280;22580;57.670;12.006;2023-02-01T11:58:49;99213.97;;;11.83;100.00
13013;BME280;22580;57.670;12.006;2023-02-01T12:01:44;99198.25;;;12.06;100.00
13013;BME280;22580;57.670;12.006;2023-02-01T12:04:36;99192.38;;;11.85;100.00
13013;BME280;22580;57.670;12.006;2023-02-01T12:07:16;99199.28;;;12.39;100.00
13013;BME280;22580;57.670;12.006;2023-02-01T12:10:00;99160.34;;;12.27;100.00
13013;BME280;22580;57.670;12.006;2023-02-01T12:12:38;99191.31;;;11.95;100.00
13013;BME280;22580;57.670;12.006;2023-02-01T12:15:27;99182.06;;;11.90;100.00
13013;BME280;22580;57.670;12.006;2023-02-01T12:18:29;99192.81;;;11.98;100.00
13013;BME280;22580;57.670;12.006;2023-02-01T12:21:23;99153.22;;;11.84;100.00
13013;BME280;22580;57.670;12.006;2023-02-01T12:24:19;99171.50;;;11.70;100.00
13013;BME280;22580;57.670;12.006;2023-02-01T12:26:56;99145.44;;;11.37;100.00
13013;BME280;22580;57.670;12.006;2023-02-01T12:29:39;99158.97;;;11.35;100.00
13013;BME280;22580;57.670;12.006;2023-02-01T12:32:24;99176.75;;;11.98;100.00
13013;BME280;22580;57.670;12.006;2023-02-01T12:35:27;99188.06;;;12.09;100.00
13013;BME280;22580;57.670;12.006;2023-02-01T12:38:13;99180.53;;;11.87;100.00
13013;BME280;22580;57.670;12.006;2023-02-01T12:40:57;99171.03;;;11.93;100.00
13013;BME280;22580;57.670;12.006;2023-02-01T12:43:37;99180.06;;;11.92;100.00
13013;BME280;22580;57.670;12.006;2023-02-01T12:46:08;99170.41;;;11.99;100.00
13013;BME280;22580;57.670;12.006;2023-02-01T12:48:40;99161.91;;;12.03;100.00
13013;BME280;22580;57.670;12.006;2023-02-01T12:51:12;99169.50;;;12.16;100.00
13013;BME280;22580;57.670;12.006;2023-02-01T12:53:45;99089.44;;;11.61;100.00
13013;BME280;22580;57.670;12.006;2023-02-01T12:56:21;99151.44;;;12.18;100.00
13013;BME280;22580;57.670;12.006;2023-02-01T12:58:51;99164.13;;;12.42;100.00
13013;BME280;22580;57.670;12.006;2023-02-01T13:01:22;99174.56;;;12.53;100.00
13013;BME280;22580;57.670;12.006;2023-02-01T13:03:59;99150.97;;;12.57;100.00
13013;BME280;22580;57.670;12.006;2023-02-01T13:06:34;99165.97;;;12.15;100.00
13013;BME280;22580;57.670;12.006;2023-02-01T13:09:09;99157.81;;;12.85;100.00
13013;BME280;22580;57.670;12.006;2023-02-01T13:11:45;99140.91;;;13.01;100.00